Time;durP1;ratioP1;P1;durP2;ratioP2;P2;SDS_P1;SDS_P2;PMS_P1;PMS_P2;Temp;Humidity;BMP_temperature;BMP_pressure;BME280_temperature;BME280_humidity;BME280_pressure;Samples;Min_cycle;Max_cycle;Signal;HPM_P1;HPM_P2
2023/12/31 00:00:53;;;;;;;4.20;2.00;;;7.90;99.90;;;;;;5038081;28;20045;-66
2023/12/31 00:03:18;;;;;;;7.10;2.38;;;7.90;99.90;;;;;;5043843;28;21081;-67
2023/12/31 00:05:44;;;;;;;4.72;2.20;;;7.80;99.90;;;;;;5038772;28;20037;-66
2023/12/31 00:08:11;;;;;;;8.27;2.40;;;7.80;99.90;;;;;;5049289;28;20044;-66
2023/12/31 00:10:39;;;;;;;4.28;2.10;;;7.70;99.90;;;;;;5043185;28;20071;-65
2023/12/31 00:13:05;;;;;;;3.83;2.20;;;7.70;99.90;;;;;;5034170;28;20509;-65
2023/12/31 00:15:31;;;;;;;5.28;1.70;;;7.70;99.90;;;;;;5032727;28;20045;-67
2023/12/31 00:17:56;;;;;;;3.88;2.40;;;7.60;99.90;;;;;;5033360;28;20034;-66
2023/12/31 00:20:22;;;;;;;5.03;1.85;;;7.60;99.90;;;;;;5040161;28;20044;-65
2023/12/31 00:22:48;;;;;;;5.95;2.30;;;7.50;99.90;;;;;;5036161;28;20065;-66
2023/12/31 00:25:13;;;;;;;3.55;1.80;;;7.50;99.90;;;;;;5029637;28;20029;-66
2023/12/31 00:27:40;;;;;;;3.83;2.30;;;7.50;99.90;;;;;;5044062;28;20136;-67
2023/12/31 00:30:06;;;;;;;4.03;2.10;;;7.50;99.90;;;;;;5056031;28;20412;-66
2023/12/31 00:32:32;;;;;;;4.20;2.00;;;7.50;99.90;;;;;;5034192;28;20048;-66
2023/12/31 00:34:57;;;;;;;3.35;1.85;;;7.50;99.90;;;;;;5034314;28;20662;-66
2023/12/31 00:37:23;;;;;;;6.60;1.85;;;7.50;99.90;;;;;;5020346;28;20073;-65
2023/12/31 00:39:49;;;;;;;2.53;1.77;;;7.60;99.90;;;;;;5041152;28;20127;-67
2023/12/31 00:42:14;;;;;;;3.10;2.00;;;7.60;99.90;;;;;;5031178;28;20461;-67
2023/12/31 00:44:40;;;;;;;3.03;1.98;;;7.50;99.90;;;;;;5036087;28;20088;-67
2023/12/31 00:47:05;;;;;;;5.32;2.03;;;7.50;99.90;;;;;;5029166;28;20075;-66
2023/12/31 00:49:31;;;;;;;5.97;2.30;;;7.50;99.90;;;;;;5022172;28;20044;-66
2023/12/31 00:51:57;;;;;;;3.22;2.00;;;7.60;99.90;;;;;;5032329;28;20040;-66
2023/12/31 00:54:22;;;;;;;4.30;2.13;;;7.60;99.90;;;;;;5030892;28;20051;-66
2023/12/31 00:56:48;;;;;;;3.83;2.03;;;7.60;99.90;;;;;;5030258;28;20116;-65
2023/12/31 00:59:13;;;;;;;4.85;2.10;;;7.60;99.90;;;;;;5031528;28;20037;-66
2023/12/31 01:01:39;;;;;;;4.75;2.15;;;7.60;99.90;;;;;;5034173;28;20068;-66
2023/12/31 01:04:05;;;;;;;5.20;2.30;;;7.60;99.90;;;;;;5030893;28;20384;-66
2023/12/31 01:06:30;;;;;;;3.65;2.30;;;7.70;99.90;;;;;;5030530;28;20075;-66
2023/12/31 01:08:58;;;;;;;4.30;2.72;;;7.60;99.90;;;;;;5031622;28;20449;-66
2023/12/31 01:11:23;;;;;;;4.55;2.15;;;7.70;99.90;;;;;;5044120;28;20056;-67
2023/12/31 01:13:49;;;;;;;4.57;2.50;;;7.60;99.90;;;;;;5050662;28;20040;-66
2023/12/31 01:16:14;;;;;;;4.18;2.13;;;7.60;99.90;;;;;;5038038;28;20033;-67
2023/12/31 01:18:40;;;;;;;5.45;2.10;;;7.60;99.90;;;;;;5039668;28;20076;-66
2023/12/31 01:21:06;;;;;;;3.60;2.13;;;7.60;99.90;;;;;;5032962;28;20045;-66
2023/12/31 01:23:31;;;;;;;3.92;2.30;;;7.60;99.90;;;;;;5029961;28;20037;-66
2023/12/31 01:25:57;;;;;;;4.88;2.78;;;7.60;99.90;;;;;;5033942;28;20115;-66
2023/12/31 01:28:22;;;;;;;6.45;2.47;;;7.50;99.90;;;;;;5039589;28;20371;-66
2023/12/31 01:30:48;;;;;;;5.07;2.75;;;7.50;99.90;;;;;;5029637;28;20148;-66
2023/12/31 01:33:14;;;;;;;5.38;2.60;;;7.40;99.90;;;;;;5047085;28;20483;-67
2023/12/31 01:35:39;;;;;;;5.38;2.60;;;7.40;99.90;;;;;;5041470;28;20045;-66
2023/12/31 01:38:05;;;;;;;7.15;2.95;;;7.50;99.90;;;;;;5037084;28;20381;-66
2023/12/31 01:40:30;;;;;;;6.90;2.58;;;7.40;99.90;;;;;;5049068;28;20579;-66
2023/12/31 01:42:56;;;;;;;4.22;2.50;;;7.40;99.90;;;;;;5045039;28;20094;-66
2023/12/31 01:45:21;;;;;;;5.60;2.47;;;7.40;99.90;;;;;;5030124;28;20541;-66
2023/12/31 01:47:47;;;;;;;7.60;3.00;;;7.40;99.90;;;;;;5034543;28;20056;-66
2023/12/31 01:50:14;;;;;;;4.68;2.40;;;7.50;99.90;;;;;;5044527;28;20040;-66
2023/12/31 01:52:41;;;;;;;4.25;2.63;;;7.50;99.90;;;;;;5040142;28;20095;-66
2023/12/31 01:55:07;;;;;;;4.93;2.67;;;7.50;99.90;;;;;;5036901;28;20385;-65
2023/12/31 01:57:35;;;;;;;4.57;2.67;;;7.50;99.90;;;;;;5038636;28;20099;-66
2023/12/31 02:00:03;;;;;;;5.22;2.58;;;7.50;99.90;;;;;;5018607;28;20045;-65
2023/12/31 02:02:30;;;;;;;5.05;2.40;;;7.50;99.90;;;;;;5028869;28;20092;-67
2023/12/31 02:04:56;;;;;;;5.05;2.60;;;7.50;99.90;;;;;;5034135;28;20037;-66
2023/12/31 02:07:22;;;;;;;3.13;2.30;;;7.50;99.90;;;;;;5028778;28;20033;-67
2023/12/31 02:09:49;;;;;;;6.68;2.50;;;7.50;99.90;;;;;;5032801;28;20382;-66
2023/12/31 02:12:15;;;;;;;7.60;2.63;;;7.40;99.90;;;;;;5014504;28;20052;-66
2023/12/31 02:14:41;;;;;;;6.30;2.60;;;7.40;99.90;;;;;;5048805;28;20033;-66
2023/12/31 02:17:06;;;;;;;4.53;2.60;;;7.30;99.90;;;;;;5035773;28;20045;-66
2023/12/31 02:19:32;;;;;;;4.15;2.45;;;7.30;99.90;;;;;;5039492;28;20075;-66
2023/12/31 02:21:58;;;;;;;6.00;2.30;;;7.30;99.90;;;;;;5027836;28;20033;-66
2023/12/31 02:24:39;;;;;;;3.70;2.28;;;7.20;99.90;;;;;;5036324;28;20072;-66
2023/12/31 02:27:04;;;;;;;5.53;2.80;;;7.20;99.90;;;;;;5037518;28;20045;-65
2023/12/31 02:29:30;;;;;;;4.13;2.22;;;7.20;99.90;;;;;;5036900;28;20144;-66
2023/12/31 02:31:56;;;;;;;5.60;2.67;;;7.10;99.90;;;;;;5028975;28;20061;-66
2023/12/31 02:34:21;;;;;;;5.15;2.90;;;7.00;99.90;;;;;;5029961;28;20081;-66
2023/12/31 02:36:47;;;;;;;3.92;2.63;;;7.00;99.90;;;;;;5034478;28;20477;-66
2023/12/31 02:39:12;;;;;;;3.80;2.45;;;6.90;99.90;;;;;;5040683;28;20033;-65
2023/12/31 02:41:38;;;;;;;4.18;2.22;;;7.00;99.90;;;;;;5046206;28;20033;-66
2023/12/31 02:44:04;;;;;;;3.65;1.92;;;7.00;99.90;;;;;;5036743;28;20052;-66
2023/12/31 02:46:30;;;;;;;3.35;2.10;;;7.00;99.90;;;;;;5029666;28;20388;-65
2023/12/31 02:48:55;;;;;;;3.78;1.90;;;7.00;99.90;;;;;;5035391;28;20033;-65
2023/12/31 02:51:21;;;;;;;3.33;2.08;;;7.10;99.90;;;;;;5039411;28;20083;-65
2023/12/31 02:53:46;;;;;;;3.58;2.28;;;7.00;99.90;;;;;;5032667;28;20044;-66
2023/12/31 02:56:12;;;;;;;2.35;1.83;;;7.00;99.90;;;;;;5036198;28;20130;-65
2023/12/31 02:58:37;;;;;;;2.58;1.77;;;7.10;99.90;;;;;;5030509;28;20042;-66
2023/12/31 03:01:03;;;;;;;3.53;1.92;;;7.00;99.90;;;;;;5041516;28;20092;-65
2023/12/31 03:03:29;;;;;;;3.40;2.03;;;7.00;99.90;;;;;;5033944;28;20069;-66
2023/12/31 03:05:54;;;;;;;3.30;2.00;;;7.00;99.90;;;;;;5031985;28;20128;-66
2023/12/31 03:08:20;;;;;;;5.85;2.38;;;7.00;99.90;;;;;;5031944;28;20049;-66
2023/12/31 03:10:45;;;;;;;5.35;2.10;;;7.00;99.90;;;;;;5037037;28;20041;-67
2023/12/31 03:13:11;;;;;;;4.22;2.63;;;7.00;99.90;;;;;;5030721;28;20590;-67
2023/12/31 03:15:37;;;;;;;4.75;2.22;;;7.00;99.90;;;;;;5038475;28;20034;-66
2023/12/31 03:18:04;;;;;;;3.20;1.92;;;7.00;99.90;;;;;;5031508;28;20033;-67
2023/12/31 03:20:29;;;;;;;2.92;1.77;;;7.00;99.90;;;;;;5028568;28;20045;-65
2023/12/31 03:22:55;;;;;;;3.05;2.10;;;7.00;99.90;;;;;;5038561;28;20374;-66
2023/12/31 03:25:20;;;;;;;3.90;2.10;;;7.00;99.90;;;;;;5037399;28;20512;-66
2023/12/31 03:27:46;;;;;;;2.53;1.63;;;7.00;99.90;;;;;;5039476;28;20048;-66
2023/12/31 03:30:12;;;;;;;3.22;1.90;;;6.90;99.90;;;;;;5036114;28;20083;-66
2023/12/31 03:32:38;;;;;;;4.30;2.03;;;6.90;99.90;;;;;;5033233;28;20041;-66
2023/12/31 03:35:04;;;;;;;2.50;1.70;;;7.00;99.90;;;;;;5035341;28;20083;-66
2023/12/31 03:37:30;;;;;;;2.60;1.80;;;6.90;99.90;;;;;;5027677;28;20092;-65
2023/12/31 03:39:56;;;;;;;3.88;1.90;;;6.90;99.90;;;;;;5036125;28;20049;-66
2023/12/31 03:42:22;;;;;;;2.25;1.63;;;6.90;99.90;;;;;;5029387;28;20385;-65
2023/12/31 03:44:47;;;;;;;2.33;1.70;;;6.90;99.90;;;;;;5038182;28;20041;-64
2023/12/31 03:47:13;;;;;;;3.85;2.05;;;6.80;99.90;;;;;;5047102;28;20037;-65
2023/12/31 03:49:39;;;;;;;2.85;1.80;;;6.80;99.90;;;;;;5044818;28;20432;-66
2023/12/31 03:52:05;;;;;;;4.63;2.00;;;6.80;99.90;;;;;;5034614;28;20128;-65
2023/12/31 03:54:30;;;;;;;2.92;1.83;;;6.80;99.90;;;;;;5031257;28;20482;-66
2023/12/31 03:56:56;;;;;;;3.85;1.92;;;6.80;99.90;;;;;;5042889;28;20068;-66
2023/12/31 03:59:21;;;;;;;3.33;1.67;;;6.80;99.90;;;;;;5040237;28;20044;-67
2023/12/31 04:01:48;;;;;;;2.58;2.30;;;6.70;99.90;;;;;;5042436;28;20508;-65
2023/12/31 04:04:14;;;;;;;6.22;1.95;;;6.80;99.90;;;;;;5035916;28;20059;-67
2023/12/31 04:06:42;;;;;;;4.00;2.03;;;6.70;99.90;;;;;;5042766;28;20039;-66
2023/12/31 04:09:09;;;;;;;2.53;1.88;;;6.80;99.90;;;;;;5037634;28;20041;-65
2023/12/31 04:11:34;;;;;;;3.22;1.73;;;6.80;99.90;;;;;;5031773;28;20156;-67
2023/12/31 04:14:00;;;;;;;3.83;2.00;;;6.70;99.90;;;;;;5032291;28;20141;-69
2023/12/31 04:16:25;;;;;;;3.65;2.85;;;6.80;99.90;;;;;;5041045;28;20350;-67
2023/12/31 04:18:51;;;;;;;3.55;2.15;;;6.90;99.90;;;;;;5034936;28;20041;-66
2023/12/31 04:21:17;;;;;;;3.95;1.77;;;6.80;99.90;;;;;;5033264;28;20044;-66
2023/12/31 04:23:42;;;;;;;3.88;1.83;;;6.90;99.90;;;;;;5030448;28;20648;-67
2023/12/31 04:26:08;;;;;;;3.08;2.05;;;6.90;99.90;;;;;;5030456;28;20110;-66
2023/12/31 04:28:33;;;;;;;4.00;1.90;;;6.90;99.90;;;;;;5034072;28;20037;-65
2023/12/31 04:31:02;;;;;;;5.13;1.90;;;7.00;99.90;;;;;;5043479;28;20080;-66
2023/12/31 04:33:28;;;;;;;3.20;2.03;;;7.00;99.90;;;;;;5042382;28;20553;-66
2023/12/31 04:35:53;;;;;;;3.10;2.10;;;7.00;99.90;;;;;;5036905;28;20056;-66
2023/12/31 04:38:19;;;;;;;3.15;2.10;;;7.00;99.90;;;;;;5031633;28;20069;-65
2023/12/31 04:40:44;;;;;;;3.88;1.98;;;6.90;99.90;;;;;;5040738;28;20079;-66
2023/12/31 04:43:10;;;;;;;3.88;2.03;;;7.00;99.90;;;;;;5034338;28;20046;-66
2023/12/31 04:45:36;;;;;;;6.13;2.13;;;7.00;99.90;;;;;;5032879;28;20047;-66
2023/12/31 04:48:01;;;;;;;3.65;2.08;;;7.00;99.90;;;;;;5043181;28;20075;-66
2023/12/31 04:50:27;;;;;;;4.70;2.20;;;7.00;99.90;;;;;;5040150;28;20041;-66
2023/12/31 04:52:52;;;;;;;4.30;2.42;;;7.00;99.90;;;;;;5031468;28;20045;-66
2023/12/31 04:55:18;;;;;;;4.25;2.47;;;7.00;99.90;;;;;;5044329;28;20515;-66
2023/12/31 04:57:44;;;;;;;3.13;2.33;;;7.00;99.90;;;;;;5048347;28;20037;-67
2023/12/31 05:00:10;;;;;;;4.93;2.78;;;7.00;99.90;;;;;;5037225;28;20052;-66
2023/12/31 05:02:35;;;;;;;3.53;2.50;;;7.00;99.90;;;;;;5037188;28;20046;-66
2023/12/31 05:05:02;;;;;;;3.90;2.40;;;7.00;99.90;;;;;;5030876;28;20029;-66
2023/12/31 05:07:28;;;;;;;5.50;2.60;;;7.10;99.90;;;;;;5032936;28;20179;-65
2023/12/31 05:09:53;;;;;;;5.53;3.20;;;7.10;99.90;;;;;;5034107;28;20077;-66
2023/12/31 05:12:19;;;;;;;5.10;2.38;;;7.10;99.90;;;;;;5026590;28;20068;-65
2023/12/31 05:14:45;;;;;;;4.93;2.60;;;7.10;99.90;;;;;;5027498;28;20398;-66
2023/12/31 05:17:10;;;;;;;4.63;2.60;;;7.10;99.90;;;;;;5038455;28;20128;-66
2023/12/31 05:19:36;;;;;;;3.85;2.50;;;7.10;99.90;;;;;;5045720;28;20106;-66
2023/12/31 05:22:01;;;;;;;5.95;2.72;;;7.10;99.90;;;;;;5042754;28;20036;-66
2023/12/31 05:24:27;;;;;;;3.90;2.28;;;7.10;99.90;;;;;;5033928;28;20675;-68
2023/12/31 05:26:52;;;;;;;4.18;2.80;;;7.10;99.90;;;;;;5047627;28;20037;-66
2023/12/31 05:29:18;;;;;;;5.68;2.65;;;7.10;99.90;;;;;;5046080;28;20044;-67
2023/12/31 05:31:44;;;;;;;5.38;2.85;;;7.10;99.90;;;;;;5031714;28;20057;-67
2023/12/31 05:34:09;;;;;;;6.97;3.00;;;7.10;99.90;;;;;;5030530;28;20041;-68
2023/12/31 05:36:35;;;;;;;5.20;2.78;;;7.20;99.90;;;;;;5043373;28;20033;-67
2023/12/31 05:39:00;;;;;;;7.10;3.33;;;7.20;99.90;;;;;;5045239;28;20132;-66
2023/12/31 05:41:26;;;;;;;5.63;3.10;;;7.20;99.90;;;;;;5039604;28;20041;-66
2023/12/31 05:43:52;;;;;;;3.50;2.80;;;7.20;99.90;;;;;;5039431;28;20048;-67
2023/12/31 05:46:17;;;;;;;5.13;3.28;;;7.30;99.90;;;;;;5031888;28;20159;-66
2023/12/31 05:48:43;;;;;;;5.55;3.25;;;7.20;99.90;;;;;;5044778;28;20041;-66
2023/12/31 05:51:09;;;;;;;5.68;2.90;;;7.20;99.90;;;;;;5033676;28;20429;-67
2023/12/31 05:53:35;;;;;;;5.85;3.20;;;7.30;99.90;;;;;;5041543;28;20033;-67
2023/12/31 05:56:01;;;;;;;4.43;2.95;;;7.20;99.90;;;;;;5047021;28;20480;-67
2023/12/31 05:58:26;;;;;;;7.15;3.08;;;7.20;99.90;;;;;;5033221;28;20049;-67
2023/12/31 06:00:52;;;;;;;4.38;2.70;;;7.30;99.90;;;;;;5040256;28;20714;-67
2023/12/31 06:03:17;;;;;;;4.20;2.67;;;7.30;99.90;;;;;;5037963;28;20039;-66
2023/12/31 06:05:43;;;;;;;4.35;2.28;;;7.30;99.90;;;;;;5031755;28;20041;-66
2023/12/31 06:08:09;;;;;;;4.95;2.63;;;7.30;99.90;;;;;;5035973;28;20118;-67
2023/12/31 06:10:34;;;;;;;4.93;2.70;;;7.30;99.90;;;;;;5036287;28;20484;-67
2023/12/31 06:13:01;;;;;;;4.40;2.75;;;7.30;99.90;;;;;;5031547;28;20102;-66
2023/12/31 06:15:27;;;;;;;4.90;2.55;;;7.40;99.90;;;;;;5039685;28;20045;-67
2023/12/31 06:17:53;;;;;;;4.85;2.72;;;7.30;99.90;;;;;;5015406;28;20045;-67
2023/12/31 06:20:19;;;;;;;5.05;2.53;;;7.40;99.90;;;;;;5046747;28;20044;-67
2023/12/31 06:22:45;;;;;;;6.85;2.78;;;7.40;99.90;;;;;;5037725;28;20056;-65
2023/12/31 06:25:10;;;;;;;4.88;2.72;;;7.40;99.90;;;;;;5012381;28;20037;-66
2023/12/31 06:27:39;;;;;;;4.40;2.25;;;7.40;99.90;;;;;;5044127;28;20047;-68
2023/12/31 06:30:06;;;;;;;3.90;2.45;;;7.40;99.90;;;;;;5032971;28;20053;-67
2023/12/31 06:32:31;;;;;;;3.80;2.63;;;7.40;99.90;;;;;;5031819;28;20405;-66
2023/12/31 06:34:57;;;;;;;3.90;2.42;;;7.40;99.90;;;;;;5031981;28;20053;-68
2023/12/31 06:37:23;;;;;;;5.15;2.50;;;7.50;99.90;;;;;;5027071;28;20049;-67
2023/12/31 06:39:49;;;;;;;4.80;2.47;;;7.50;99.90;;;;;;5037264;28;20067;-65
2023/12/31 06:42:15;;;;;;;4.47;2.63;;;7.50;99.90;;;;;;5030949;28;20449;-67
2023/12/31 06:44:41;;;;;;;2.80;2.20;;;7.60;99.90;;;;;;5028310;28;20037;-66
2023/12/31 06:47:07;;;;;;;3.05;2.60;;;7.70;99.90;;;;;;5028329;28;21033;-67
2023/12/31 06:49:33;;;;;;;4.28;2.50;;;7.70;99.90;;;;;;5015769;28;20080;-67
2023/12/31 06:52:00;;;;;;;3.30;2.45;;;7.70;99.90;;;;;;5033440;28;20369;-67
2023/12/31 06:54:26;;;;;;;3.47;2.28;;;7.70;99.90;;;;;;5022183;28;20041;-66
2023/12/31 06:56:52;;;;;;;3.47;2.13;;;7.70;99.90;;;;;;5035198;28;20038;-67
2023/12/31 06:59:17;;;;;;;3.28;2.35;;;7.70;99.90;;;;;;5028647;28;20044;-66
2023/12/31 07:01:43;;;;;;;4.43;2.30;;;7.70;99.90;;;;;;5037943;28;20071;-66
2023/12/31 07:04:09;;;;;;;3.92;2.58;;;7.70;99.90;;;;;;5028934;28;20042;-67
2023/12/31 07:06:34;;;;;;;4.85;2.58;;;7.80;99.90;;;;;;5037213;28;20083;-67
2023/12/31 07:09:00;;;;;;;4.63;2.30;;;7.90;99.90;;;;;;5034046;28;20037;-67
2023/12/31 07:11:25;;;;;;;6.10;2.75;;;7.90;99.90;;;;;;5028287;28;20139;-66
2023/12/31 07:13:51;;;;;;;2.72;2.20;;;7.90;99.90;;;;;;5027949;28;20041;-66
2023/12/31 07:16:17;;;;;;;4.53;2.60;;;7.90;99.90;;;;;;5032280;28;20061;-67
2023/12/31 07:18:42;;;;;;;4.15;2.22;;;7.90;99.90;;;;;;5036034;28;20501;-68
2023/12/31 07:21:08;;;;;;;4.30;3.13;;;7.90;99.90;;;;;;5037737;28;20453;-67
2023/12/31 07:23:33;;;;;;;3.55;2.50;;;7.90;99.90;;;;;;5038878;28;20033;-66
2023/12/31 07:25:59;;;;;;;4.05;2.60;;;7.90;99.90;;;;;;5038420;28;20863;-66
2023/12/31 07:28:25;;;;;;;4.68;2.30;;;8.00;99.90;;;;;;5042545;28;20060;-66
2023/12/31 07:30:50;;;;;;;4.80;2.83;;;7.90;99.90;;;;;;5040018;28;20057;-66
2023/12/31 07:33:17;;;;;;;3.42;2.28;;;8.00;99.90;;;;;;5036130;28;20045;-66
2023/12/31 07:35:43;;;;;;;3.25;2.60;;;8.00;99.90;;;;;;5019624;28;20033;-67
2023/12/31 07:38:10;;;;;;;6.15;2.58;;;8.00;99.90;;;;;;5022818;28;20499;-66
2023/12/31 07:40:36;;;;;;;5.90;2.28;;;8.00;99.90;;;;;;5051232;28;20064;-66
2023/12/31 07:43:02;;;;;;;2.33;1.98;;;7.90;99.90;;;;;;5041865;28;20359;-66
2023/12/31 07:45:28;;;;;;;3.22;2.13;;;8.00;99.90;;;;;;5041758;28;20045;-68
2023/12/31 07:47:53;;;;;;;3.85;2.30;;;8.00;99.90;;;;;;5037865;28;20174;-67
2023/12/31 07:50:20;;;;;;;2.83;2.15;;;8.00;99.90;;;;;;5038926;28;20047;-67
2023/12/31 07:52:46;;;;;;;3.05;2.10;;;8.00;99.90;;;;;;5044544;28;20469;-66
2023/12/31 07:55:12;;;;;;;3.38;2.22;;;8.10;99.90;;;;;;5019767;28;20044;-67
2023/12/31 07:57:38;;;;;;;3.60;2.45;;;8.10;99.90;;;;;;5036145;28;20124;-66
2023/12/31 08:00:05;;;;;;;5.07;2.50;;;8.10;99.90;;;;;;5043834;28;20147;-66
2023/12/31 08:02:31;;;;;;;3.88;2.58;;;8.10;99.90;;;;;;5033756;28;20083;-68
2023/12/31 08:04:56;;;;;;;3.83;2.42;;;8.10;99.90;;;;;;5049714;28;20070;-66
2023/12/31 08:07:22;;;;;;;6.10;2.30;;;8.10;99.90;;;;;;5037493;28;20041;-67
2023/12/31 08:09:47;;;;;;;4.85;2.50;;;8.20;99.90;;;;;;5043320;28;20042;-67
2023/12/31 08:12:13;;;;;;;2.63;2.20;;;8.10;99.90;;;;;;5022010;28;20052;-66
2023/12/31 08:14:39;;;;;;;4.53;2.30;;;7.90;99.90;;;;;;5038234;28;20440;-66
2023/12/31 08:17:04;;;;;;;3.50;2.22;;;7.90;99.90;;;;;;5034465;28;20041;-68
2023/12/31 08:19:30;;;;;;;2.75;2.25;;;7.70;99.90;;;;;;5039449;28;20091;-66
2023/12/31 08:21:57;;;;;;;3.90;2.40;;;7.70;99.90;;;;;;5037807;28;20041;-68
2023/12/31 08:24:22;;;;;;;4.25;2.40;;;7.70;99.90;;;;;;5042500;28;20152;-69
2023/12/31 08:26:48;;;;;;;4.50;1.98;;;7.70;99.90;;;;;;5030675;28;20125;-67
2023/12/31 08:29:14;;;;;;;3.33;2.35;;;7.70;99.90;;;;;;5032215;28;20365;-67
2023/12/31 08:31:40;;;;;;;3.63;2.20;;;7.70;99.90;;;;;;5015343;28;20358;-67
2023/12/31 08:34:06;;;;;;;2.90;2.05;;;7.70;99.90;;;;;;5041540;28;20052;-68
2023/12/31 08:36:31;;;;;;;4.72;2.65;;;7.70;99.90;;;;;;5050504;28;20041;-66
2023/12/31 08:38:57;;;;;;;3.05;2.13;;;7.80;99.90;;;;;;5039859;28;20037;-66
2023/12/31 08:41:22;;;;;;;6.15;2.35;;;7.80;99.90;;;;;;5031631;28;20033;-67
2023/12/31 08:43:48;;;;;;;3.58;2.20;;;7.90;99.90;;;;;;5032219;28;20049;-66
2023/12/31 08:46:14;;;;;;;4.45;2.70;;;8.10;99.90;;;;;;5032470;28;20163;-67
2023/12/31 08:48:41;;;;;;;2.70;1.85;;;8.20;99.90;;;;;;5033941;28;20041;-66
2023/12/31 08:51:07;;;;;;;4.03;2.42;;;8.20;99.90;;;;;;5044037;28;20066;-66
2023/12/31 08:53:33;;;;;;;2.75;2.00;;;8.20;99.90;;;;;;5020946;28;20533;-66
2023/12/31 08:55:59;;;;;;;2.70;2.10;;;8.40;99.90;;;;;;5025672;28;20045;-69
2023/12/31 08:58:25;;;;;;;3.58;2.08;;;8.40;99.90;;;;;;5038790;28;20033;-67
2023/12/31 09:00:53;;;;;;;4.43;3.17;;;8.30;99.90;;;;;;5034893;28;20038;-66
2023/12/31 09:03:18;;;;;;;4.45;2.13;;;8.40;99.90;;;;;;5033438;28;20053;-67
2023/12/31 09:05:44;;;;;;;3.67;2.22;;;8.40;99.90;;;;;;5050339;28;20397;-69
2023/12/31 09:08:10;;;;;;;4.93;2.22;;;8.50;99.90;;;;;;5041799;28;20053;-66
2023/12/31 09:10:36;;;;;;;3.00;1.92;;;8.50;99.90;;;;;;5036865;28;20387;-65
2023/12/31 09:13:02;;;;;;;3.58;2.10;;;8.50;99.90;;;;;;5034952;28;20080;-66
2023/12/31 09:15:28;;;;;;;3.63;2.05;;;8.50;99.90;;;;;;5036536;28;20045;-65
2023/12/31 09:17:54;;;;;;;4.32;2.10;;;8.50;99.90;;;;;;5039378;28;20090;-66
2023/12/31 09:20:21;;;;;;;2.90;2.05;;;8.60;99.90;;;;;;5038092;28;20029;-67
2023/12/31 09:22:50;;;;;;;3.00;2.05;;;8.60;99.90;;;;;;5039727;28;20553;-66
2023/12/31 09:25:16;;;;;;;3.17;2.08;;;8.60;99.90;;;;;;5023236;28;20033;-67
2023/12/31 09:27:41;;;;;;;3.63;2.22;;;8.70;99.90;;;;;;5044554;28;20037;-66
2023/12/31 09:30:08;;;;;;;2.85;1.83;;;8.70;99.90;;;;;;5022685;28;20465;-66
2023/12/31 09:32:34;;;;;;;3.10;2.38;;;8.60;99.90;;;;;;5047165;28;20102;-66
2023/12/31 09:35:00;;;;;;;4.78;2.10;;;8.70;99.90;;;;;;5043808;28;20489;-66
2023/12/31 09:37:25;;;;;;;3.20;2.10;;;8.70;99.90;;;;;;5047959;28;20130;-68
2023/12/31 09:39:52;;;;;;;5.15;2.25;;;8.70;99.90;;;;;;5049646;28;20071;-66
2023/12/31 09:42:35;;;;;;;6.63;2.55;;;8.80;99.90;;;;;;5050891;28;20041;-66
2023/12/31 09:45:05;;;;;;;3.22;2.40;;;8.80;99.90;;;;;;5023451;28;20476;-65
2023/12/31 09:47:32;;;;;;;2.80;2.45;;;8.80;99.90;;;;;;5036494;28;20045;-67
2023/12/31 09:49:58;;;;;;;6.43;2.47;;;8.90;99.90;;;;;;5032070;28;20905;-67
2023/12/31 09:52:26;;;;;;;4.38;2.40;;;8.90;99.90;;;;;;5030178;28;20382;-67
2023/12/31 09:54:54;;;;;;;2.75;2.35;;;8.90;99.90;;;;;;5032570;28;20049;-66
2023/12/31 09:57:20;;;;;;;4.65;2.78;;;8.90;99.90;;;;;;5032733;28;20120;-66
2023/12/31 09:59:49;;;;;;;4.93;3.08;;;8.90;99.90;;;;;;5030531;28;20038;-67
2023/12/31 10:02:23;;;;;;;2.67;2.05;;;8.90;99.90;;;;;;5044004;28;20099;-67
2023/12/31 10:04:52;;;;;;;4.43;2.65;;;8.90;99.90;;;;;;5043242;28;20063;-65
2023/12/31 10:07:20;;;;;;;4.70;2.70;;;8.90;99.90;;;;;;5034750;28;20576;-68
2023/12/31 10:09:46;;;;;;;3.53;2.50;;;9.00;99.90;;;;;;5019685;28;20095;-68
2023/12/31 10:12:12;;;;;;;4.25;2.67;;;9.00;99.90;;;;;;5032450;28;20037;-66
2023/12/31 10:14:38;;;;;;;4.53;2.45;;;9.00;99.90;;;;;;5032856;28;20047;-67
2023/12/31 10:17:07;;;;;;;3.65;2.38;;;9.10;99.90;;;;;;5042037;28;20389;-66
2023/12/31 10:19:33;;;;;;;5.57;2.30;;;9.10;99.90;;;;;;5037212;28;20163;-66
2023/12/31 10:21:59;;;;;;;4.45;2.60;;;9.10;99.90;;;;;;5039479;28;20552;-67
2023/12/31 10:24:29;;;;;;;4.70;2.53;;;9.20;99.90;;;;;;5030632;28;20029;-65
2023/12/31 10:27:04;;;;;;;3.88;2.47;;;9.20;99.90;;;;;;5030625;28;20481;-67
2023/12/31 10:29:35;;;;;;;4.90;3.00;;;9.30;99.90;;;;;;5038947;28;20120;-66
2023/12/31 10:32:03;;;;;;;3.85;2.70;;;9.30;99.90;;;;;;5040428;28;20045;-66
2023/12/31 10:34:29;;;;;;;5.00;2.95;;;9.30;99.90;;;;;;5044343;28;20084;-67
2023/12/31 10:37:03;;;;;;;8.27;3.08;;;9.40;99.90;;;;;;5048788;28;20477;-67
2023/12/31 10:39:31;;;;;;;5.75;3.05;;;9.40;99.90;;;;;;5013738;28;20068;-67
2023/12/31 10:42:04;;;;;;;4.63;3.00;;;9.50;99.90;;;;;;5042599;28;20033;-70
2023/12/31 10:44:34;;;;;;;3.28;2.42;;;9.50;99.90;;;;;;5039289;28;20045;-65
2023/12/31 10:47:06;;;;;;;4.90;2.63;;;9.60;99.90;;;;;;5033086;28;20068;-67
2023/12/31 10:49:33;;;;;;;4.50;2.88;;;9.70;99.90;;;;;;5041020;28;20374;-66
2023/12/31 10:52:11;;;;;;;5.88;3.03;;;9.80;99.90;;;;;;5011832;28;20041;-67
2023/12/31 10:54:51;;;;;;;3.90;2.60;;;9.90;99.90;;;;;;5033702;28;20457;-66
2023/12/31 10:57:17;;;;;;;3.97;3.10;;;10.00;99.90;;;;;;5037154;28;20048;-67
2023/12/31 10:59:43;;;;;;;3.28;2.45;;;10.00;99.90;;;;;;5047204;28;20462;-68
2023/12/31 11:02:17;;;;;;;4.78;2.80;;;10.10;99.90;;;;;;5034874;28;20104;-67
2023/12/31 11:04:47;;;;;;;3.13;2.50;;;10.10;99.90;;;;;;5046716;28;20045;-67
2023/12/31 11:07:17;;;;;;;3.38;2.33;;;10.10;99.90;;;;;;5033177;28;20128;-66
2023/12/31 11:09:43;;;;;;;4.95;2.63;;;10.10;99.90;;;;;;5036796;28;20053;-66
2023/12/31 11:12:10;;;;;;;4.57;2.45;;;10.00;99.90;;;;;;5040943;28;20028;-68
2023/12/31 11:14:39;;;;;;;4.03;2.60;;;9.90;99.90;;;;;;5033532;28;20160;-67
2023/12/31 11:17:12;;;;;;;3.75;2.53;;;9.90;99.90;;;;;;5036738;28;20069;-66
2023/12/31 11:19:43;;;;;;;6.10;3.10;;;9.70;99.90;;;;;;5032865;28;20044;-67
2023/12/31 11:22:46;;;;;;;4.38;3.20;;;9.70;99.90;;;;;;5032135;28;20033;-64
2023/12/31 11:25:15;;;;;;;6.20;4.22;;;9.80;99.90;;;;;;5032908;28;20059;-68
2023/12/31 11:27:41;;;;;;;4.70;2.85;;;9.60;99.90;;;;;;5034878;28;20041;-66
2023/12/31 11:30:07;;;;;;;5.13;2.88;;;9.50;99.90;;;;;;5041337;28;20485;-66
2023/12/31 11:32:36;;;;;;;4.20;2.90;;;9.20;99.90;;;;;;5036331;28;20048;-67
2023/12/31 11:35:05;;;;;;;5.43;2.70;;;9.00;99.90;;;;;;5046513;28;20045;-66
2023/12/31 11:37:38;;;;;;;5.63;2.80;;;8.90;99.90;;;;;;5032277;28;20042;-67
2023/12/31 11:40:06;;;;;;;4.30;2.78;;;8.80;99.90;;;;;;5016100;28;20059;-66
2023/12/31 11:42:31;;;;;;;4.47;2.63;;;8.70;99.90;;;;;;5044895;28;20051;-67
2023/12/31 11:44:57;;;;;;;3.78;2.70;;;8.60;99.90;;;;;;5019287;28;20038;-67
2023/12/31 11:47:26;;;;;;;5.20;2.63;;;8.80;99.90;;;;;;5036640;28;20033;-67
2023/12/31 11:49:58;;;;;;;4.00;2.75;;;8.70;99.90;;;;;;5043765;28;20044;-67
2023/12/31 11:52:40;;;;;;;3.83;2.65;;;8.80;99.90;;;;;;5045256;28;20072;-66
2023/12/31 11:55:10;;;;;;;2.92;2.00;;;9.20;99.90;;;;;;5045499;28;20087;-65
2023/12/31 11:57:36;;;;;;;3.42;2.35;;;9.10;99.90;;;;;;5032947;28;20041;-68
2023/12/31 12:00:06;;;;;;;4.22;2.33;;;9.00;99.90;;;;;;5022462;28;20790;-65
2023/12/31 12:02:32;;;;;;;2.95;1.50;;;8.90;99.90;;;;;;5037507;28;20389;-67
2023/12/31 12:05:02;;;;;;;2.00;0.95;;;7.40;99.90;;;;;;5034441;28;20033;-68
2023/12/31 12:07:28;;;;;;;1.27;0.90;;;7.60;99.90;;;;;;5050887;28;20095;-67
2023/12/31 12:09:54;;;;;;;1.48;1.00;;;7.20;99.90;;;;;;5051674;28;20045;-67
2023/12/31 12:12:19;;;;;;;1.48;1.10;;;7.00;99.90;;;;;;5050257;28;20510;-67
2023/12/31 12:14:48;;;;;;;2.80;0.98;;;7.20;99.90;;;;;;5045940;28;20078;-68
2023/12/31 12:17:15;;;;;;;1.10;0.90;;;7.20;99.90;;;;;;5042872;28;20041;-66
2023/12/31 12:19:40;;;;;;;4.00;1.02;;;6.90;99.90;;;;;;5052945;28;20087;-67
2023/12/31 12:22:06;;;;;;;2.25;1.20;;;6.80;99.90;;;;;;5042892;28;20033;-67
2023/12/31 12:24:32;;;;;;;2.35;1.30;;;7.20;99.90;;;;;;5033436;28;20136;-66
2023/12/31 12:26:59;;;;;;;3.72;1.35;;;7.30;99.90;;;;;;5037985;28;20069;-67
2023/12/31 12:29:27;;;;;;;1.40;0.90;;;7.00;99.90;;;;;;5040711;28;20037;-67
2023/12/31 12:31:52;;;;;;;2.70;0.93;;;6.80;99.90;;;;;;5036085;28;20060;-68
2023/12/31 12:34:18;;;;;;;1.17;0.90;;;6.70;99.90;;;;;;5042150;28;20090;-69
2023/12/31 12:36:48;;;;;;;2.20;0.73;;;6.80;99.90;;;;;;5017185;28;20433;-67
2023/12/31 12:39:20;;;;;;;0.80;0.52;;;7.10;99.90;;;;;;5038632;28;20065;-70
2023/12/31 12:41:48;;;;;;;1.20;0.80;;;6.90;99.90;;;;;;5023118;28;20159;-67
2023/12/31 12:44:14;;;;;;;3.35;0.70;;;7.20;99.90;;;;;;5046377;28;20068;-70
2023/12/31 12:46:42;;;;;;;1.25;0.98;;;7.00;99.90;;;;;;5038492;28;20441;-69
2023/12/31 12:49:08;;;;;;;1.50;1.00;;;7.20;99.90;;;;;;5031983;28;20041;-68
2023/12/31 12:51:35;;;;;;;1.90;1.08;;;7.00;99.90;;;;;;5029640;28;20539;-69
2023/12/31 12:54:02;;;;;;;1.83;1.20;;;7.20;99.90;;;;;;5039331;28;20047;-70